Asotin, WA (99402)

5:06 AM PST on February 10, 2016 (GMT -0800)
Nick's Weather Station | | Change Station
CLOSE
Current Station
Personal Weather Station
Location: Lewiston, ID
Elevation: 1076 ft
Nearby Weather Stations

Elev 1076 ft 46.37 °N, 117.04 °W | Updated 9 seconds ago

Clear
Clear
36.5 °F
Feels Like 36 °F
N
0.0
Wind Variable Wind from ESE
Gusts 0.0 mph

Today
High -- | Low -- °F
--% Chance of Precip.
Yesterday
High -- | Low -- °F
Precip. -- in
Pressure 30.29 in
Visibility 10.0 miles
Clouds Clear
Windchill 36 °F
Dew Point 30 °F
Humidity 78%
Rainfall 0.00 in
Snow Depth Not available.
6:59 AM 5:05 PM
Waxing Crescent, 5% visible
METAR KLWS 101256Z AUTO 14010KT 10SM CLR 06/M01 A3027 RMK AO2 SLP255 T00561011
Pressure 30.29 in
Visibility 10.0 miles
Clouds Clear
Windchill 36 °F
Dew Point 30 °F
Humidity 78%
Rainfall 0.00 in
Snow Depth Not available.
6:59 AM 5:05 PM
Waxing Crescent, 5% visible
METAR KLWS 101256Z AUTO 14010KT 10SM CLR 06/M01 A3027 RMK AO2 SLP255 T00561011

10-Day Weather Forecast

Almanac

Astronomy

Feb. 10, 2016 Rise Set
Actual Time
Civil Twilight
Nautical Twilight
Astronomical Twilight
Moon
Length of Visible Light
Length of Day
Tomorrow will be .
, % of the Moon is Illuminated

Today's Extremes

State Highs State Lows

Community

WunderPhotos

Upload Photos

1,891,838 photos uploaded!

WunderBlog® & News

Nearby

Air Quality

  Air Quality AQ Index Pollutant
Not available.

Snow Depth

Station Depth Elevation

Earthquake Activity

City Distance Mag. Time & Date
Minimum magnitude displayed is 2.5.

Coastal Water Temperatures

Place Temperature

Stations

Nearby Weather Stations

Station Location Temp. Windchill Dew Point Humidity Wind Precip. Elev Updated Type
                   

Watches & Warnings

There are currently no watches in effect.